Currituck — AEFR — position and weather

sailwx.info

Track history (hours):
 
Tides and Currents Weather Stations Pressure Air Temp Water Temp Dewpoint Dewpoint Depression Visibility Wind Speed Wind Dir Waves Ship Positions

Currituck

Last reported at 2017-Aug-18 08:04 UTC. Time now 2017-Aug-23 13:45 UTC.
Position N 40°06' W 074°02'.

Length 45 m; draft 2 m.

Type: Dredging. MMSI: 369970446.

Date/timePositionNaut miles runAvg speedWind from/ knotsBaromVisibWave heightAir tempDewpointWater temp
2017-Aug-18 08:04N 40°06' W 074°02'0 1.1
2017-Aug-18 07:51N 40°06' W 074°02'1 1.6
2017-Aug-18 07:30N 40°07' W 074°02'1 1.0
2017-Aug-18 07:00N 40°06' W 074°02'0 0.0
2017-Aug-18 05:47N 40°06' W 074°02'0 0.4
2017-Aug-18 05:08N 40°06' W 074°02'0 1.1
2017-Aug-18 04:54N 40°06' W 074°02'0 0.4
2017-Aug-18 04:17N 40°06' W 074°02'11 0.3
2017-Aug-16 19:50N 39°55' W 074°03'4 8.0
2017-Aug-16 19:21N 39°52' W 074°03'3 7.6
2017-Aug-16 18:59N 39°49' W 074°04'4 7.5
2017-Aug-16 18:30N 39°45' W 074°05'2 3.2
2017-Aug-16 17:59N 39°46' W 074°07'1 1.3
2017-Aug-16 17:30N 39°45' W 074°07'0 0.0
2017-Aug-16 17:00N 39°45' W 074°07'0 0.0
2017-Aug-16 16:30N 39°45' W 074°07'0 0.0
2017-Aug-16 16:00N 39°45' W 074°07'0 0.0
2017-Aug-16 15:30N 39°45' W 074°07'0 0.0
2017-Aug-16 15:00N 39°45' W 074°07'0 0.0
2017-Aug-16 14:30N 39°45' W 074°07'0 0.0
2017-Aug-16 14:00N 39°45' W 074°07'0 0.0
2017-Aug-16 13:30N 39°45' W 074°07'0 0.0
2017-Aug-16 13:00N 39°45' W 074°07'0 0.0
2017-Aug-16 12:30N 39°45' W 074°07'0 0.0
2017-Aug-16 12:00N 39°45' W 074°07'0 0.0
2017-Aug-16 11:30N 39°45' W 074°07'0 0.0
2017-Aug-16 11:00N 39°45' W 074°07'0 0.0
2017-Aug-16 10:30N 39°45' W 074°07'0 0.0
2017-Aug-16 10:00N 39°45' W 074°07'0 0.0
2017-Aug-16 09:30N 39°45' W 074°07'0 0.0
2017-Aug-16 09:01N 39°45' W 074°07'0 0.0
2017-Aug-16 08:29N 39°45' W 074°07'0 0.0
2017-Aug-16 07:59N 39°45' W 074°07'0 0.0
2017-Aug-16 07:30N 39°45' W 074°07'0 0.0
2017-Aug-16 07:00N 39°45' W 074°07'0 0.0
2017-Aug-16 06:30N 39°45' W 074°07'0 0.0
2017-Aug-16 06:01N 39°45' W 074°07'0 0.0
2017-Aug-16 05:30N 39°45' W 074°07'0 0.0
2017-Aug-16 04:58N 39°45' W 074°07'0 0.0
2017-Aug-16 04:30N 39°45' W 074°07'0 0.0
2017-Aug-16 04:00N 39°45' W 074°07'0 0.0
2017-Aug-16 03:30N 39°45' W 074°07'0 0.0
2017-Aug-16 02:59N 39°45' W 074°07'0 0.0
2017-Aug-16 02:29N 39°45' W 074°07'0 0.0
2017-Aug-16 01:59N 39°45' W 074°07'0 0.0
2017-Aug-16 01:30N 39°45' W 074°07'0 0.0
2017-Aug-16 01:00N 39°45' W 074°07'0 0.0
2017-Aug-16 00:29N 39°45' W 074°07'0 0.0
2017-Aug-15 23:59N 39°45' W 074°07'0 0.0
2017-Aug-15 23:30N 39°45' W 074°07'0 0.0
2017-Aug-15 22:59N 39°45' W 074°07'0 0.0
2017-Aug-15 22:30N 39°45' W 074°07'0 0.0
2017-Aug-15 22:00N 39°45' W 074°07'0 0.0
2017-Aug-15 21:30N 39°45' W 074°07'0 0.0
2017-Aug-15 21:00N 39°45' W 074°07'0 0.0
2017-Aug-15 20:30N 39°45' W 074°07'0 0.5
2017-Aug-15 20:00N 39°45' W 074°07'2 4.2
2017-Aug-15 19:29N 39°46' W 074°04'5 8.3
2017-Aug-15 18:56N 39°51' W 074°04'20 2.7
2017-Aug-15 11:15N 40°11' W 074°01'0 0.0
2017-Aug-15 10:53N 40°11' W 074°01'0 0.0
2017-Aug-15 10:30N 40°11' W 074°01'0 0.0
2017-Aug-15 09:58N 40°11' W 074°01'0 0.0
2017-Aug-15 09:14N 40°11' W 074°01'0 0.0
2017-Aug-15 08:58N 40°11' W 074°01'0 0.0
2017-Aug-15 08:26N 40°11' W 074°01'0 0.0
2017-Aug-15 07:24N 40°11' W 074°01'0 0.0
2017-Aug-15 06:54N 40°11' W 074°01'0 0.0
2017-Aug-15 06:31N 40°11' W 074°01'0 0.0
2017-Aug-15 06:00N 40°11' W 074°01'0 0.0
2017-Aug-15 05:30N 40°11' W 074°01'0 0.0
2017-Aug-15 05:00N 40°11' W 074°01'0 0.0
2017-Aug-15 04:30N 40°11' W 074°01'0 0.0
2017-Aug-15 04:00N 40°11' W 074°01'0 0.0
2017-Aug-15 03:30N 40°11' W 074°01'0 0.0
2017-Aug-15 03:00N 40°11' W 074°01'0 0.0
2017-Aug-15 02:30N 40°11' W 074°01'0 0.0
2017-Aug-15 01:57N 40°11' W 074°01'13 1.1
2017-Aug-14 13:22N 39°58' W 074°02'3 8.2
2017-Aug-14 12:59N 39°55' W 074°03'4 8.1
2017-Aug-14 12:29N 39°51' W 074°03'4 8.0
2017-Aug-14 12:00N 39°47' W 074°04'2 4.4
2017-Aug-14 11:30N 39°46' W 074°06'1 1.7
2017-Aug-14 11:00N 39°45' W 074°07'0 0.0
2017-Aug-14 10:30N 39°45' W 074°07'0 0.0
2017-Aug-14 10:00N 39°45' W 074°07'0 0.0
2017-Aug-14 09:30N 39°45' W 074°07'0 0.0
2017-Aug-14 09:00N 39°45' W 074°07'0 0.0
2017-Aug-14 08:30N 39°45' W 074°07'0 0.0
2017-Aug-14 08:00N 39°45' W 074°07'0 0.0
2017-Aug-14 07:29N 39°45' W 074°07'0 0.0
2017-Aug-14 07:00N 39°45' W 074°07'0 0.0
2017-Aug-14 06:30N 39°45' W 074°07'0 0.0
2017-Aug-14 06:00N 39°45' W 074°07'0 0.0
2017-Aug-14 05:30N 39°45' W 074°07'0 0.0
2017-Aug-14 05:00N 39°45' W 074°07'0 0.0
2017-Aug-14 04:30N 39°45' W 074°07'0 0.0
2017-Aug-14 03:59N 39°45' W 074°07'0 0.0
2017-Aug-14 03:30N 39°45' W 074°07'0 0.0
2017-Aug-14 03:00N 39°45' W 074°07'0 0.0
2017-Aug-14 02:29N 39°45' W 074°07'0 0.0
2017-Aug-14 02:00N 39°45' W 074°07'0 0.0
2017-Aug-14 01:30N 39°45' W 074°07'0 0.0
2017-Aug-14 01:00N 39°45' W 074°07'0 0.0
2017-Aug-14 00:30N 39°45' W 074°07'0 0.0
2017-Aug-14 00:00N 39°45' W 074°07'0 0.0
2017-Aug-13 23:30N 39°45' W 074°07'0 0.0
2017-Aug-13 23:00N 39°45' W 074°07'0 0.0
2017-Aug-13 22:30N 39°45' W 074°07'0 0.0
2017-Aug-13 22:00N 39°45' W 074°07'0 0.0
2017-Aug-13 21:30N 39°45' W 074°07'0 0.0
2017-Aug-13 21:00N 39°45' W 074°07'0 0.0
2017-Aug-13 20:30N 39°45' W 074°07'0 0.0
2017-Aug-13 20:00N 39°45' W 074°07'0 0.0
2017-Aug-13 19:31N 39°45' W 074°07'0 0.6
2017-Aug-13 19:00N 39°45' W 074°07'2 3.8
2017-Aug-13 18:29N 39°44' W 074°05'4 7.8
2017-Aug-13 18:00N 39°40' W 074°07'4 7.9
2017-Aug-13 17:30N 39°37' W 074°10'4 7.9
2017-Aug-13 17:00N 39°33' W 074°12'15 3.4
2017-Aug-13 12:38N 39°23' W 074°25'0 0.0
2017-Aug-13 11:35N 39°23' W 074°25'0 0.0
2017-Aug-13 11:28N 39°23' W 074°25'0 0.0
2017-Aug-13 10:52N 39°23' W 074°25'0 0.0
2017-Aug-13 09:59N 39°23' W 074°25'0 0.0
2017-Aug-13 09:30N 39°23' W 074°25'0 0.0
2017-Aug-13 08:55N 39°23' W 074°25'0 0.0
2017-Aug-12 03:37N 39°23' W 074°25'0 0.0
2017-Aug-12 03:20N 39°23' W 074°25'0 0.0
2017-Aug-12 03:00N 39°23' W 074°25'0 0.0
2017-Aug-12 02:30N 39°23' W 074°25'0 0.0
2017-Aug-12 02:00N 39°23' W 074°25'0 0.0
2017-Aug-12 01:31N 39°23' W 074°25'0 0.0
2017-Aug-12 00:17N 39°23' W 074°25'0 0.0
2017-Aug-11 23:59N 39°23' W 074°25'0 0.0
2017-Aug-11 23:29N 39°23' W 074°25'0 0.0
2017-Aug-11 22:59N 39°23' W 074°25'11 1.5
2017-Aug-11 15:31N 39°29' W 074°14'1 5.7
2017-Aug-11 15:17N 39°30' W 074°13'2 5.8
2017-Aug-11 15:00N 39°32' W 074°13'3 5.5
2017-Aug-11 14:29N 39°34' W 074°11'5 5.4
2017-Aug-11 13:30N 39°39' W 074°08'3 5.4
2017-Aug-11 13:00N 39°42' W 074°07'2 4.9
2017-Aug-11 12:30N 39°44' W 074°05'2 4.2
2017-Aug-11 12:00N 39°46' W 074°06'1 1.8
2017-Aug-11 11:30N 39°45' W 074°07'0 0.0
2017-Aug-11 11:00N 39°45' W 074°07'0 0.0
2017-Aug-11 10:30N 39°45' W 074°07'0 0.0
2017-Aug-11 10:00N 39°45' W 074°07'0 0.0
2017-Aug-11 09:30N 39°45' W 074°07'0 0.0
2017-Aug-11 09:00N 39°45' W 074°07'0 0.0
2017-Aug-11 08:30N 39°45' W 074°07'0 0.0
2017-Aug-11 08:00N 39°45' W 074°07'0 0.0
2017-Aug-11 07:30N 39°45' W 074°07'0 0.0
2017-Aug-11 07:00N 39°45' W 074°07'0 0.0
2017-Aug-11 06:30N 39°45' W 074°07'0 0.0
2017-Aug-11 06:00N 39°45' W 074°07'0 0.0
2017-Aug-11 05:30N 39°45' W 074°07'0 0.0
2017-Aug-11 05:00N 39°45' W 074°07'0 0.0
2017-Aug-11 04:30N 39°45' W 074°07'0 0.0
2017-Aug-11 03:59N 39°45' W 074°07'0 0.0
2017-Aug-11 03:30N 39°45' W 074°07'0 0.0
2017-Aug-11 03:00N 39°45' W 074°07'0 0.0
2017-Aug-11 02:30N 39°45' W 074°07'0 0.0
2017-Aug-11 02:00N 39°45' W 074°07'0 0.0
2017-Aug-11 01:30N 39°45' W 074°07'0 0.0
2017-Aug-11 00:59N 39°45' W 074°07'0 0.0
2017-Aug-11 00:29N 39°45' W 074°07'0 0.0
2017-Aug-11 00:00N 39°45' W 074°07'0 0.0
2017-Aug-10 23:29N 39°45' W 074°07'0 0.0
2017-Aug-10 22:59N 39°45' W 074°07'0 0.0
2017-Aug-10 22:30N 39°45' W 074°07'0 0.0
2017-Aug-10 22:00N 39°45' W 074°07'0 0.0
2017-Aug-10 21:30N 39°45' W 074°07'0 0.0
2017-Aug-10 21:00N 39°45' W 074°07'0 0.0
2017-Aug-10 20:30N 39°45' W 074°07'0 0.0
2017-Aug-10 20:00N 39°45' W 074°07'0 0.0
2017-Aug-10 19:30N 39°45' W 074°07'0 0.0
2017-Aug-10 19:00N 39°45' W 074°07'0 0.0
2017-Aug-10 18:29N 39°45' W 074°07'0 0.0
2017-Aug-10 18:00N 39°45' W 074°07'0 0.0
2017-Aug-10 17:30N 39°45' W 074°07'0 0.0
2017-Aug-10 17:00N 39°45' W 074°07'0 0.0
2017-Aug-10 16:30N 39°45' W 074°07'0 0.0
2017-Aug-10 16:00N 39°45' W 074°07'0 0.0
2017-Aug-10 15:30N 39°45' W 074°07'0 0.0
2017-Aug-10 15:00N 39°45' W 074°07'0 0.0
2017-Aug-10 14:30N 39°45' W 074°07'0 0.0
2017-Aug-10 14:00N 39°45' W 074°07'0 0.0
2017-Aug-10 13:30N 39°45' W 074°07'0 0.0
2017-Aug-10 13:00N 39°45' W 074°07'0 0.0
2017-Aug-10 12:30N 39°45' W 074°07'0 0.0
2017-Aug-10 12:00N 39°45' W 074°07'0 0.0
2017-Aug-10 11:30N 39°45' W 074°07'0 0.0
2017-Aug-10 11:00N 39°45' W 074°07'0 0.0
2017-Aug-10 10:30N 39°45' W 074°07'0 0.0
2017-Aug-10 10:00N 39°45' W 074°07'0 0.0
2017-Aug-10 09:30N 39°45' W 074°07'0 0.0
2017-Aug-10 09:00N 39°45' W 074°07'0 0.0
2017-Aug-10 08:30N 39°45' W 074°07'0 0.0
2017-Aug-10 08:00N 39°45' W 074°07'0 0.0
2017-Aug-10 07:30N 39°45' W 074°07'0 0.0
2017-Aug-10 07:00N 39°45' W 074°07'0 0.0
2017-Aug-10 06:30N 39°45' W 074°07'0 0.0
2017-Aug-10 06:00N 39°45' W 074°07'0 0.0
2017-Aug-10 05:30N 39°45' W 074°07'0 0.0
2017-Aug-10 05:00N 39°45' W 074°07'0 0.0
2017-Aug-10 04:30N 39°45' W 074°07'0 0.0
2017-Aug-10 04:00N 39°45' W 074°07'0 0.0
2017-Aug-10 03:30N 39°45' W 074°07'0 0.0
2017-Aug-10 03:00N 39°45' W 074°07'0 0.0
2017-Aug-10 02:30N 39°45' W 074°07'0 0.0
2017-Aug-10 02:00N 39°45' W 074°07'0 0.0
2017-Aug-10 01:28N 39°45' W 074°07'0 0.0
2017-Aug-10 00:59N 39°45' W 074°07'0 0.0
2017-Aug-10 00:29N 39°45' W 074°07'0 0.0
2017-Aug-09 23:59N 39°45' W 074°07'0 0.0
2017-Aug-09 23:29N 39°45' W 074°07'0 0.0
2017-Aug-09 23:00N 39°45' W 074°07'0 0.0
2017-Aug-09 22:30N 39°45' W 074°07'0 0.0
2017-Aug-09 22:00N 39°45' W 074°07'0 0.0
2017-Aug-09 21:30N 39°45' W 074°07'0 0.0
2017-Aug-09 21:00N 39°45' W 074°07'0 0.0
2017-Aug-09 20:30N 39°45' W 074°07'0 0.0
2017-Aug-09 20:00N 39°45' W 074°07'0 0.0
2017-Aug-09 19:30N 39°45' W 074°07'0 0.0
2017-Aug-09 19:00N 39°45' W 074°07'0 0.0
2017-Aug-09 18:30N 39°45' W 074°07'0 0.0
2017-Aug-09 18:00N 39°45' W 074°07'0 0.0
2017-Aug-09 17:30N 39°45' W 074°07'0 0.0
2017-Aug-09 17:00N 39°45' W 074°07'0 0.0
2017-Aug-09 16:30N 39°45' W 074°07'0 0.0
2017-Aug-09 16:00N 39°45' W 074°07'0 0.0
2017-Aug-09 15:30N 39°45' W 074°07'0 0.0
2017-Aug-09 15:00N 39°45' W 074°07'0 0.0
2017-Aug-09 14:30N 39°45' W 074°07'0 0.0
2017-Aug-09 14:00N 39°45' W 074°07'0 0.0
2017-Aug-09 13:30N 39°45' W 074°07'0 0.0
2017-Aug-09 13:00N 39°45' W 074°07'0 0.0
2017-Aug-09 12:30N 39°45' W 074°07'0 0.0
2017-Aug-09 12:00N 39°45' W 074°07'0 0.0
2017-Aug-09 11:30N 39°45' W 074°07'0 0.0
2017-Aug-09 11:00N 39°45' W 074°07'0 0.0
2017-Aug-09 10:30N 39°45' W 074°07'0 0.0
2017-Aug-09 09:59N 39°45' W 074°07'0 0.0
2017-Aug-09 09:30N 39°45' W 074°07'0 0.0
2017-Aug-09 09:00N 39°45' W 074°07'0 0.0
2017-Aug-09 08:30N 39°45' W 074°07'0 0.0
2017-Aug-09 07:59N 39°45' W 074°07'0 0.0
2017-Aug-09 07:30N 39°45' W 074°07'0 0.0
2017-Aug-09 07:00N 39°45' W 074°07'0 0.0
2017-Aug-09 06:29N 39°45' W 074°07'1 2.0
2017-Aug-09 06:00N 39°46' W 074°06'1 2.4
2017-Aug-09 05:30N 39°46' W 074°05'3 5.2
2017-Aug-09 05:00N 39°49' W 074°04'3 5.1
2017-Aug-09 04:30N 39°51' W 074°04'3 4.9
2017-Aug-09 04:00N 39°54' W 074°03'3 4.9
2017-Aug-09 03:29N 39°56' W 074°03'  
Track history (hours):
 
Tides and Currents Weather Stations Pressure Air Temp Water Temp Dewpoint Dewpoint Depression Visibility Wind Speed Wind Dir Waves Ship Positions

Currituck

Last reported at 2017-Aug-18 08:04 UTC. Time now 2017-Aug-23 13:45 UTC.
Position N 40°06' W 074°02'.

Length 45 m; draft 2 m.

Type: Dredging. MMSI: 369970446.

Date/timePositionNaut miles runAvg speedWind from/ knotsBaromVisibWave heightAir tempDewpointWater temp
2017-Aug-18 08:04N 40°06' W 074°02'0 1.1
2017-Aug-18 07:51N 40°06' W 074°02'1 1.6
2017-Aug-18 07:30N 40°07' W 074°02'1 1.0
2017-Aug-18 07:00N 40°06' W 074°02'0 0.0
2017-Aug-18 05:47N 40°06' W 074°02'0 0.4
2017-Aug-18 05:08N 40°06' W 074°02'0 1.1
2017-Aug-18 04:54N 40°06' W 074°02'0 0.4
2017-Aug-18 04:17N 40°06' W 074°02'11 0.3
2017-Aug-16 19:50N 39°55' W 074°03'4 8.0
2017-Aug-16 19:21N 39°52' W 074°03'3 7.6
2017-Aug-16 18:59N 39°49' W 074°04'4 7.5
2017-Aug-16 18:30N 39°45' W 074°05'2 3.2
2017-Aug-16 17:59N 39°46' W 074°07'1 1.3
2017-Aug-16 17:30N 39°45' W 074°07'0 0.0
2017-Aug-16 17:00N 39°45' W 074°07'0 0.0
2017-Aug-16 16:30N 39°45' W 074°07'0 0.0
2017-Aug-16 16:00N 39°45' W 074°07'0 0.0
2017-Aug-16 15:30N 39°45' W 074°07'0 0.0
2017-Aug-16 15:00N 39°45' W 074°07'0 0.0
2017-Aug-16 14:30N 39°45' W 074°07'0 0.0
2017-Aug-16 14:00N 39°45' W 074°07'0 0.0
2017-Aug-16 13:30N 39°45' W 074°07'0 0.0
2017-Aug-16 13:00N 39°45' W 074°07'0 0.0
2017-Aug-16 12:30N 39°45' W 074°07'0 0.0
2017-Aug-16 12:00N 39°45' W 074°07'0 0.0
2017-Aug-16 11:30N 39°45' W 074°07'0 0.0
2017-Aug-16 11:00N 39°45' W 074°07'0 0.0
2017-Aug-16 10:30N 39°45' W 074°07'0 0.0
2017-Aug-16 10:00N 39°45' W 074°07'0 0.0
2017-Aug-16 09:30N 39°45' W 074°07'0 0.0
2017-Aug-16 09:01N 39°45' W 074°07'0 0.0
2017-Aug-16 08:29N 39°45' W 074°07'0 0.0
2017-Aug-16 07:59N 39°45' W 074°07'0 0.0
2017-Aug-16 07:30N 39°45' W 074°07'0 0.0
2017-Aug-16 07:00N 39°45' W 074°07'0 0.0
2017-Aug-16 06:30N 39°45' W 074°07'0 0.0
2017-Aug-16 06:01N 39°45' W 074°07'0 0.0
2017-Aug-16 05:30N 39°45' W 074°07'0 0.0
2017-Aug-16 04:58N 39°45' W 074°07'0 0.0
2017-Aug-16 04:30N 39°45' W 074°07'0 0.0
2017-Aug-16 04:00N 39°45' W 074°07'0 0.0
2017-Aug-16 03:30N 39°45' W 074°07'0 0.0
2017-Aug-16 02:59N 39°45' W 074°07'0 0.0
2017-Aug-16 02:29N 39°45' W 074°07'0 0.0
2017-Aug-16 01:59N 39°45' W 074°07'0 0.0
2017-Aug-16 01:30N 39°45' W 074°07'0 0.0
2017-Aug-16 01:00N 39°45' W 074°07'0 0.0
2017-Aug-16 00:29N 39°45' W 074°07'0 0.0
2017-Aug-15 23:59N 39°45' W 074°07'0 0.0
2017-Aug-15 23:30N 39°45' W 074°07'0 0.0
2017-Aug-15 22:59N 39°45' W 074°07'0 0.0
2017-Aug-15 22:30N 39°45' W 074°07'0 0.0
2017-Aug-15 22:00N 39°45' W 074°07'0 0.0
2017-Aug-15 21:30N 39°45' W 074°07'0 0.0
2017-Aug-15 21:00N 39°45' W 074°07'0 0.0
2017-Aug-15 20:30N 39°45' W 074°07'0 0.5
2017-Aug-15 20:00N 39°45' W 074°07'2 4.2
2017-Aug-15 19:29N 39°46' W 074°04'5 8.3
2017-Aug-15 18:56N 39°51' W 074°04'20 2.7
2017-Aug-15 11:15N 40°11' W 074°01'0 0.0
2017-Aug-15 10:53N 40°11' W 074°01'0 0.0
2017-Aug-15 10:30N 40°11' W 074°01'0 0.0
2017-Aug-15 09:58N 40°11' W 074°01'0 0.0
2017-Aug-15 09:14N 40°11' W 074°01'0 0.0
2017-Aug-15 08:58N 40°11' W 074°01'0 0.0
2017-Aug-15 08:26N 40°11' W 074°01'0 0.0
2017-Aug-15 07:24N 40°11' W 074°01'0 0.0
2017-Aug-15 06:54N 40°11' W 074°01'0 0.0
2017-Aug-15 06:31N 40°11' W 074°01'0 0.0
2017-Aug-15 06:00N 40°11' W 074°01'0 0.0
2017-Aug-15 05:30N 40°11' W 074°01'0 0.0
2017-Aug-15 05:00N 40°11' W 074°01'0 0.0
2017-Aug-15 04:30N 40°11' W 074°01'0 0.0
2017-Aug-15 04:00N 40°11' W 074°01'0 0.0
2017-Aug-15 03:30N 40°11' W 074°01'0 0.0
2017-Aug-15 03:00N 40°11' W 074°01'0 0.0
2017-Aug-15 02:30N 40°11' W 074°01'0 0.0
2017-Aug-15 01:57N 40°11' W 074°01'13 1.1
2017-Aug-14 13:22N 39°58' W 074°02'3 8.2
2017-Aug-14 12:59N 39°55' W 074°03'4 8.1
2017-Aug-14 12:29N 39°51' W 074°03'4 8.0
2017-Aug-14 12:00N 39°47' W 074°04'2 4.4
2017-Aug-14 11:30N 39°46' W 074°06'1 1.7
2017-Aug-14 11:00N 39°45' W 074°07'0 0.0
2017-Aug-14 10:30N 39°45' W 074°07'0 0.0
2017-Aug-14 10:00N 39°45' W 074°07'0 0.0
2017-Aug-14 09:30N 39°45' W 074°07'0 0.0
2017-Aug-14 09:00N 39°45' W 074°07'0 0.0
2017-Aug-14 08:30N 39°45' W 074°07'0 0.0
2017-Aug-14 08:00N 39°45' W 074°07'0 0.0
2017-Aug-14 07:29N 39°45' W 074°07'0 0.0
2017-Aug-14 07:00N 39°45' W 074°07'0 0.0
2017-Aug-14 06:30N 39°45' W 074°07'0 0.0
2017-Aug-14 06:00N 39°45' W 074°07'0 0.0
2017-Aug-14 05:30N 39°45' W 074°07'0 0.0
2017-Aug-14 05:00N 39°45' W 074°07'0 0.0
2017-Aug-14 04:30N 39°45' W 074°07'0 0.0
2017-Aug-14 03:59N 39°45' W 074°07'0 0.0
2017-Aug-14 03:30N 39°45' W 074°07'0 0.0
2017-Aug-14 03:00N 39°45' W 074°07'0 0.0
2017-Aug-14 02:29N 39°45' W 074°07'0 0.0
2017-Aug-14 02:00N 39°45' W 074°07'0 0.0
2017-Aug-14 01:30N 39°45' W 074°07'0 0.0
2017-Aug-14 01:00N 39°45' W 074°07'0 0.0
2017-Aug-14 00:30N 39°45' W 074°07'0 0.0
2017-Aug-14 00:00N 39°45' W 074°07'0 0.0
2017-Aug-13 23:30N 39°45' W 074°07'0 0.0
2017-Aug-13 23:00N 39°45' W 074°07'0 0.0
2017-Aug-13 22:30N 39°45' W 074°07'0 0.0
2017-Aug-13 22:00N 39°45' W 074°07'0 0.0
2017-Aug-13 21:30N 39°45' W 074°07'0 0.0
2017-Aug-13 21:00N 39°45' W 074°07'0 0.0
2017-Aug-13 20:30N 39°45' W 074°07'0 0.0
2017-Aug-13 20:00N 39°45' W 074°07'0 0.0
2017-Aug-13 19:31N 39°45' W 074°07'0 0.6
2017-Aug-13 19:00N 39°45' W 074°07'2 3.8
2017-Aug-13 18:29N 39°44' W 074°05'4 7.8
2017-Aug-13 18:00N 39°40' W 074°07'4 7.9
2017-Aug-13 17:30N 39°37' W 074°10'4 7.9
2017-Aug-13 17:00N 39°33' W 074°12'15 3.4
2017-Aug-13 12:38N 39°23' W 074°25'0 0.0
2017-Aug-13 11:35N 39°23' W 074°25'0 0.0
2017-Aug-13 11:28N 39°23' W 074°25'0 0.0
2017-Aug-13 10:52N 39°23' W 074°25'0 0.0
2017-Aug-13 09:59N 39°23' W 074°25'0 0.0
2017-Aug-13 09:30N 39°23' W 074°25'0 0.0
2017-Aug-13 08:55N 39°23' W 074°25'0 0.0
2017-Aug-12 03:37N 39°23' W 074°25'0 0.0
2017-Aug-12 03:20N 39°23' W 074°25'0 0.0
2017-Aug-12 03:00N 39°23' W 074°25'0 0.0
2017-Aug-12 02:30N 39°23' W 074°25'0 0.0
2017-Aug-12 02:00N 39°23' W 074°25'0 0.0
2017-Aug-12 01:31N 39°23' W 074°25'0 0.0
2017-Aug-12 00:17N 39°23' W 074°25'0 0.0
2017-Aug-11 23:59N 39°23' W 074°25'0 0.0
2017-Aug-11 23:29N 39°23' W 074°25'0 0.0
2017-Aug-11 22:59N 39°23' W 074°25'11 1.5
2017-Aug-11 15:31N 39°29' W 074°14'1 5.7
2017-Aug-11 15:17N 39°30' W 074°13'2 5.8
2017-Aug-11 15:00N 39°32' W 074°13'3 5.5
2017-Aug-11 14:29N 39°34' W 074°11'5 5.4
2017-Aug-11 13:30N 39°39' W 074°08'3 5.4
2017-Aug-11 13:00N 39°42' W 074°07'2 4.9
2017-Aug-11 12:30N 39°44' W 074°05'2 4.2
2017-Aug-11 12:00N 39°46' W 074°06'1 1.8
2017-Aug-11 11:30N 39°45' W 074°07'0 0.0
2017-Aug-11 11:00N 39°45' W 074°07'0 0.0
2017-Aug-11 10:30N 39°45' W 074°07'0 0.0
2017-Aug-11 10:00N 39°45' W 074°07'0 0.0
2017-Aug-11 09:30N 39°45' W 074°07'0 0.0
2017-Aug-11 09:00N 39°45' W 074°07'0 0.0
2017-Aug-11 08:30N 39°45' W 074°07'0 0.0
2017-Aug-11 08:00N 39°45' W 074°07'0 0.0
2017-Aug-11 07:30N 39°45' W 074°07'0 0.0
2017-Aug-11 07:00N 39°45' W 074°07'0 0.0
2017-Aug-11 06:30N 39°45' W 074°07'0 0.0
2017-Aug-11 06:00N 39°45' W 074°07'0 0.0
2017-Aug-11 05:30N 39°45' W 074°07'0 0.0
2017-Aug-11 05:00N 39°45' W 074°07'0 0.0
2017-Aug-11 04:30N 39°45' W 074°07'0 0.0
2017-Aug-11 03:59N 39°45' W 074°07'0 0.0
2017-Aug-11 03:30N 39°45' W 074°07'0 0.0
2017-Aug-11 03:00N 39°45' W 074°07'0 0.0
2017-Aug-11 02:30N 39°45' W 074°07'0 0.0
2017-Aug-11 02:00N 39°45' W 074°07'0 0.0
2017-Aug-11 01:30N 39°45' W 074°07'0 0.0
2017-Aug-11 00:59N 39°45' W 074°07'0 0.0
2017-Aug-11 00:29N 39°45' W 074°07'0 0.0
2017-Aug-11 00:00N 39°45' W 074°07'0 0.0
2017-Aug-10 23:29N 39°45' W 074°07'0 0.0
2017-Aug-10 22:59N 39°45' W 074°07'0 0.0
2017-Aug-10 22:30N 39°45' W 074°07'0 0.0
2017-Aug-10 22:00N 39°45' W 074°07'0 0.0
2017-Aug-10 21:30N 39°45' W 074°07'0 0.0
2017-Aug-10 21:00N 39°45' W 074°07'0 0.0
2017-Aug-10 20:30N 39°45' W 074°07'0 0.0
2017-Aug-10 20:00N 39°45' W 074°07'0 0.0
2017-Aug-10 19:30N 39°45' W 074°07'0 0.0
2017-Aug-10 19:00N 39°45' W 074°07'0 0.0
2017-Aug-10 18:29N 39°45' W 074°07'0 0.0
2017-Aug-10 18:00N 39°45' W 074°07'0 0.0
2017-Aug-10 17:30N 39°45' W 074°07'0 0.0
2017-Aug-10 17:00N 39°45' W 074°07'0 0.0
2017-Aug-10 16:30N 39°45' W 074°07'0 0.0
2017-Aug-10 16:00N 39°45' W 074°07'0 0.0
2017-Aug-10 15:30N 39°45' W 074°07'0 0.0
2017-Aug-10 15:00N 39°45' W 074°07'0 0.0
2017-Aug-10 14:30N 39°45' W 074°07'0 0.0
2017-Aug-10 14:00N 39°45' W 074°07'0 0.0
2017-Aug-10 13:30N 39°45' W 074°07'0 0.0
2017-Aug-10 13:00N 39°45' W 074°07'0 0.0
2017-Aug-10 12:30N 39°45' W 074°07'0 0.0
2017-Aug-10 12:00N 39°45' W 074°07'0 0.0
2017-Aug-10 11:30N 39°45' W 074°07'0 0.0
2017-Aug-10 11:00N 39°45' W 074°07'0 0.0
2017-Aug-10 10:30N 39°45' W 074°07'0 0.0
2017-Aug-10 10:00N 39°45' W 074°07'0 0.0
2017-Aug-10 09:30N 39°45' W 074°07'0 0.0
2017-Aug-10 09:00N 39°45' W 074°07'0 0.0
2017-Aug-10 08:30N 39°45' W 074°07'0 0.0
2017-Aug-10 08:00N 39°45' W 074°07'0 0.0
2017-Aug-10 07:30N 39°45' W 074°07'0 0.0
2017-Aug-10 07:00N 39°45' W 074°07'0 0.0
2017-Aug-10 06:30N 39°45' W 074°07'0 0.0
2017-Aug-10 06:00N 39°45' W 074°07'0 0.0
2017-Aug-10 05:30N 39°45' W 074°07'0 0.0
2017-Aug-10 05:00N 39°45' W 074°07'0 0.0
2017-Aug-10 04:30N 39°45' W 074°07'0 0.0
2017-Aug-10 04:00N 39°45' W 074°07'0 0.0
2017-Aug-10 03:30N 39°45' W 074°07'0 0.0
2017-Aug-10 03:00N 39°45' W 074°07'0 0.0
2017-Aug-10 02:30N 39°45' W 074°07'0 0.0
2017-Aug-10 02:00N 39°45' W 074°07'0 0.0
2017-Aug-10 01:28N 39°45' W 074°07'0 0.0
2017-Aug-10 00:59N 39°45' W 074°07'0 0.0
2017-Aug-10 00:29N 39°45' W 074°07'0 0.0
2017-Aug-09 23:59N 39°45' W 074°07'0 0.0
2017-Aug-09 23:29N 39°45' W 074°07'0 0.0
2017-Aug-09 23:00N 39°45' W 074°07'0 0.0
2017-Aug-09 22:30N 39°45' W 074°07'0 0.0
2017-Aug-09 22:00N 39°45' W 074°07'0 0.0
2017-Aug-09 21:30N 39°45' W 074°07'0 0.0
2017-Aug-09 21:00N 39°45' W 074°07'0 0.0
2017-Aug-09 20:30N 39°45' W 074°07'0 0.0
2017-Aug-09 20:00N 39°45' W 074°07'0 0.0
2017-Aug-09 19:30N 39°45' W 074°07'0 0.0
2017-Aug-09 19:00N 39°45' W 074°07'0 0.0
2017-Aug-09 18:30N 39°45' W 074°07'0 0.0
2017-Aug-09 18:00N 39°45' W 074°07'0 0.0
2017-Aug-09 17:30N 39°45' W 074°07'0 0.0
2017-Aug-09 17:00N 39°45' W 074°07'0 0.0
2017-Aug-09 16:30N 39°45' W 074°07'0 0.0
2017-Aug-09 16:00N 39°45' W 074°07'0 0.0
2017-Aug-09 15:30N 39°45' W 074°07'0 0.0
2017-Aug-09 15:00N 39°45' W 074°07'0 0.0
2017-Aug-09 14:30N 39°45' W 074°07'0 0.0
2017-Aug-09 14:00N 39°45' W 074°07'0 0.0
2017-Aug-09 13:30N 39°45' W 074°07'0 0.0
2017-Aug-09 13:00N 39°45' W 074°07'0 0.0
2017-Aug-09 12:30N 39°45' W 074°07'0 0.0
2017-Aug-09 12:00N 39°45' W 074°07'0 0.0
2017-Aug-09 11:30N 39°45' W 074°07'0 0.0
2017-Aug-09 11:00N 39°45' W 074°07'0 0.0
2017-Aug-09 10:30N 39°45' W 074°07'0 0.0
2017-Aug-09 09:59N 39°45' W 074°07'0 0.0
2017-Aug-09 09:30N 39°45' W 074°07'0 0.0
2017-Aug-09 09:00N 39°45' W 074°07'0 0.0
2017-Aug-09 08:30N 39°45' W 074°07'0 0.0
2017-Aug-09 07:59N 39°45' W 074°07'0 0.0
2017-Aug-09 07:30N 39°45' W 074°07'0 0.0
2017-Aug-09 07:00N 39°45' W 074°07'0 0.0
2017-Aug-09 06:29N 39°45' W 074°07'1 2.0
2017-Aug-09 06:00N 39°46' W 074°06'1 2.4
2017-Aug-09 05:30N 39°46' W 074°05'3 5.2
2017-Aug-09 05:00N 39°49' W 074°04'3 5.1
2017-Aug-09 04:30N 39°51' W 074°04'3 4.9
2017-Aug-09 04:00N 39°54' W 074°03'3 4.9
2017-Aug-09 03:29N 39°56' W 074°03'  

Dump ship's entire track history